sensor_id;sensor_type;location;lat;lon;timestamp;temperature;humidity
76104;HTU21D;64831;44.870;37.336;2023-04-25T00:00:03;11.20;86.01
76104;HTU21D;64831;44.870;37.336;2023-04-25T00:02:37;11.19;86.54
76104;HTU21D;64831;44.870;37.336;2023-04-25T00:05:03;11.19;86.92
76104;HTU21D;64831;44.870;37.336;2023-04-25T00:07:30;11.18;87.22
76104;HTU21D;64831;44.870;37.336;2023-04-25T00:09:58;11.19;87.63
76104;HTU21D;64831;44.870;37.336;2023-04-25T00:12:24;11.17;88.12
76104;HTU21D;64831;44.870;37.336;2023-04-25T00:14:50;11.18;88.43
76104;HTU21D;64831;44.870;37.336;2023-04-25T00:17:16;11.19;88.64
76104;HTU21D;64831;44.870;37.336;2023-04-25T00:19:42;11.17;89.02
76104;HTU21D;64831;44.870;37.336;2023-04-25T00:22:10;11.18;89.28
76104;HTU21D;64831;44.870;37.336;2023-04-25T00:24:37;11.18;89.23
76104;HTU21D;64831;44.870;37.336;2023-04-25T00:27:03;11.17;89.37
76104;HTU21D;64831;44.870;37.336;2023-04-25T00:29:29;11.16;89.45
76104;HTU21D;64831;44.870;37.336;2023-04-25T00:31:55;11.12;89.32
76104;HTU21D;64831;44.870;37.336;2023-04-25T00:34:21;11.14;88.99
76104;HTU21D;64831;44.870;37.336;2023-04-25T00:36:46;11.13;88.70
76104;HTU21D;64831;44.870;37.336;2023-04-25T00:39:12;11.14;88.63
76104;HTU21D;64831;44.870;37.336;2023-04-25T00:41:38;11.14;88.91
76104;HTU21D;64831;44.870;37.336;2023-04-25T00:44:05;11.17;89.19
76104;HTU21D;64831;44.870;37.336;2023-04-25T00:46:32;11.20;89.56
76104;HTU21D;64831;44.870;37.336;2023-04-25T00:48:58;11.24;89.90
76104;HTU21D;64831;44.870;37.336;2023-04-25T00:51:25;11.24;90.18
76104;HTU21D;64831;44.870;37.336;2023-04-25T00:53:52;11.19;90.15
76104;HTU21D;64831;44.870;37.336;2023-04-25T00:56:18;11.16;89.81
76104;HTU21D;64831;44.870;37.336;2023-04-25T00:58:46;11.11;89.17
76104;HTU21D;64831;44.870;37.336;2023-04-25T01:01:12;11.07;88.62
76104;HTU21D;64831;44.870;37.336;2023-04-25T01:03:39;11.03;88.25
76104;HTU21D;64831;44.870;37.336;2023-04-25T01:06:09;11.01;88.15
76104;HTU21D;64831;44.870;37.336;2023-04-25T01:08:37;11.02;88.45
76104;HTU21D;64831;44.870;37.336;2023-04-25T01:11:04;11.05;88.79
76104;HTU21D;64831;44.870;37.336;2023-04-25T01:13:30;11.07;89.37
76104;HTU21D;64831;44.870;37.336;2023-04-25T01:15:58;11.09;89.67
76104;HTU21D;64831;44.870;37.336;2023-04-25T01:18:24;11.11;90.22
76104;HTU21D;64831;44.870;37.336;2023-04-25T01:20:51;11.16;90.43
76104;HTU21D;64831;44.870;37.336;2023-04-25T01:23:20;11.19;90.67
76104;HTU21D;64831;44.870;37.336;2023-04-25T01:25:47;11.19;90.53
76104;HTU21D;64831;44.870;37.336;2023-04-25T01:28:14;11.16;90.37
76104;HTU21D;64831;44.870;37.336;2023-04-25T01:30:40;11.15;90.14
76104;HTU21D;64831;44.870;37.336;2023-04-25T01:33:08;11.11;89.66
76104;HTU21D;64831;44.870;37.336;2023-04-25T01:35:34;11.08;89.21
76104;HTU21D;64831;44.870;37.336;2023-04-25T01:38:00;11.03;89.02
76104;HTU21D;64831;44.870;37.336;2023-04-25T01:40:27;11.00;89.47
76104;HTU21D;64831;44.870;37.336;2023-04-25T01:42:53;11.04;89.74
76104;HTU21D;64831;44.870;37.336;2023-04-25T01:45:20;11.04;89.95
76104;HTU21D;64831;44.870;37.336;2023-04-25T01:47:47;11.03;90.18
76104;HTU21D;64831;44.870;37.336;2023-04-25T01:50:16;11.02;90.01
76104;HTU21D;64831;44.870;37.336;2023-04-25T01:52:43;10.98;89.41
76104;HTU21D;64831;44.870;37.336;2023-04-25T01:55:09;10.92;88.25
76104;HTU21D;64831;44.870;37.336;2023-04-25T01:57:38;10.93;87.90
76104;HTU21D;64831;44.870;37.336;2023-04-25T02:00:06;10.89;88.14
76104;HTU21D;64831;44.870;37.336;2023-04-25T02:02:40;10.86;88.12
76104;HTU21D;64831;44.870;37.336;2023-04-25T02:05:15;10.85;88.01
76104;HTU21D;64831;44.870;37.336;2023-04-25T02:07:43;10.79;87.95
76104;HTU21D;64831;44.870;37.336;2023-04-25T02:10:10;10.77;87.99
76104;HTU21D;64831;44.870;37.336;2023-04-25T02:12:47;10.73;88.02
76104;HTU21D;64831;44.870;37.336;2023-04-25T02:15:20;10.68;87.71
76104;HTU21D;64831;44.870;37.336;2023-04-25T02:17:52;10.67;87.61
76104;HTU21D;64831;44.870;37.336;2023-04-25T02:20:21;10.66;87.64
76104;HTU21D;64831;44.870;37.336;2023-04-25T02:22:47;10.62;87.67
76104;HTU21D;64831;44.870;37.336;2023-04-25T02:25:13;10.60;87.61
76104;HTU21D;64831;44.870;37.336;2023-04-25T02:27:39;10.62;87.54
76104;HTU21D;64831;44.870;37.336;2023-04-25T02:30:07;10.62;87.59
76104;HTU21D;64831;44.870;37.336;2023-04-25T02:32:33;10.62;87.70
76104;HTU21D;64831;44.870;37.336;2023-04-25T02:35:02;10.64;87.96
76104;HTU21D;64831;44.870;37.336;2023-04-25T02:37:32;10.65;87.71
76104;HTU21D;64831;44.870;37.336;2023-04-25T02:39:58;10.67;87.61
76104;HTU21D;64831;44.870;37.336;2023-04-25T02:42:25;10.66;87.73
76104;HTU21D;64831;44.870;37.336;2023-04-25T02:44:51;10.67;87.84
76104;HTU21D;64831;44.870;37.336;2023-04-25T02:47:17;10.67;88.11
76104;HTU21D;64831;44.870;37.336;2023-04-25T02:49:43;10.69;88.16
76104;HTU21D;64831;44.870;37.336;2023-04-25T02:52:09;10.68;87.99
76104;HTU21D;64831;44.870;37.336;2023-04-25T02:54:35;10.68;87.71
76104;HTU21D;64831;44.870;37.336;2023-04-25T02:57:02;10.65;87.54
76104;HTU21D;64831;44.870;37.336;2023-04-25T02:59:34;10.65;87.51
76104;HTU21D;64831;44.870;37.336;2023-04-25T03:02:00;10.66;87.51
76104;HTU21D;64831;44.870;37.336;2023-04-25T03:04:27;10.67;87.46
76104;HTU21D;64831;44.870;37.336;2023-04-25T03:06:54;10.67;87.46
76104;HTU21D;64831;44.870;37.336;2023-04-25T03:09:21;10.68;87.39
76104;HTU21D;64831;44.870;37.336;2023-04-25T03:11:47;10.68;87.32
76104;HTU21D;64831;44.870;37.336;2023-04-25T03:14:13;10.68;87.35
76104;HTU21D;64831;44.870;37.336;2023-04-25T03:16:39;10.68;87.57
76104;HTU21D;64831;44.870;37.336;2023-04-25T03:19:05;10.68;87.93
76104;HTU21D;64831;44.870;37.336;2023-04-25T03:21:33;10.68;88.13
76104;HTU21D;64831;44.870;37.336;2023-04-25T03:24:01;10.72;88.08
76104;HTU21D;64831;44.870;37.336;2023-04-25T03:26:28;10.78;87.99
76104;HTU21D;64831;44.870;37.336;2023-04-25T03:28:53;10.83;88.00
76104;HTU21D;64831;44.870;37.336;2023-04-25T03:31:20;10.87;87.88
76104;HTU21D;64831;44.870;37.336;2023-04-25T03:33:46;10.89;87.93
76104;HTU21D;64831;44.870;37.336;2023-04-25T03:36:12;10.88;88.28
76104;HTU21D;64831;44.870;37.336;2023-04-25T03:38:38;10.92;88.51
76104;HTU21D;64831;44.870;37.336;2023-04-25T03:41:05;10.94;88.45
76104;HTU21D;64831;44.870;37.336;2023-04-25T03:44:07;10.98;88.52
76104;HTU21D;64831;44.870;37.336;2023-04-25T03:46:33;11.01;88.35
76104;HTU21D;64831;44.870;37.336;2023-04-25T03:48:59;11.03;88.21
76104;HTU21D;64831;44.870;37.336;2023-04-25T03:51:35;11.04;88.22
76104;HTU21D;64831;44.870;37.336;2023-04-25T03:54:01;11.01;88.48
76104;HTU21D;64831;44.870;37.336;2023-04-25T03:56:50;10.98;88.57
76104;HTU21D;64831;44.870;37.336;2023-04-25T03:59:20;10.99;88.40
76104;HTU21D;64831;44.870;37.336;2023-04-25T04:01:45;10.98;88.32
76104;HTU21D;64831;44.870;37.336;2023-04-25T04:04:12;10.96;88.12
76104;HTU21D;64831;44.870;37.336;2023-04-25T04:06:39;10.94;87.94
76104;HTU21D;64831;44.870;37.336;2023-04-25T04:09:14;10.94;87.90
76104;HTU21D;64831;44.870;37.336;2023-04-25T04:11:43;10.93;88.21
76104;HTU21D;64831;44.870;37.336;2023-04-25T04:14:09;10.93;88.41
76104;HTU21D;64831;44.870;37.336;2023-04-25T04:16:38;10.95;88.52
76104;HTU21D;64831;44.870;37.336;2023-04-25T04:19:05;10.96;88.36
76104;HTU21D;64831;44.870;37.336;2023-04-25T04:21:31;10.96;88.10
76104;HTU21D;64831;44.870;37.336;2023-04-25T04:24:00;10.97;87.85
76104;HTU21D;64831;44.870;37.336;2023-04-25T04:26:28;10.93;87.56
76104;HTU21D;64831;44.870;37.336;2023-04-25T04:29:07;10.82;87.15
76104;HTU21D;64831;44.870;37.336;2023-04-25T04:32:06;10.72;86.95
76104;HTU21D;64831;44.870;37.336;2023-04-25T04:34:35;10.73;87.12
76104;HTU21D;64831;44.870;37.336;2023-04-25T04:37:02;10.74;87.38
76104;HTU21D;64831;44.870;37.336;2023-04-25T04:39:28;10.78;87.49
76104;HTU21D;64831;44.870;37.336;2023-04-25T04:42:03;10.81;87.57
76104;HTU21D;64831;44.870;37.336;2023-04-25T04:44:42;10.85;87.66
76104;HTU21D;64831;44.870;37.336;2023-04-25T04:47:45;10.86;88.16
76104;HTU21D;64831;44.870;37.336;2023-04-25T04:50:32;10.84;88.68
76104;HTU21D;64831;44.870;37.336;2023-04-25T04:53:18;10.87;88.88
76104;HTU21D;64831;44.870;37.336;2023-04-25T04:56:04;10.94;88.78
76104;HTU21D;64831;44.870;37.336;2023-04-25T04:58:57;11.02;88.74
76104;HTU21D;64831;44.870;37.336;2023-04-25T05:01:36;11.10;88.95
76104;HTU21D;64831;44.870;37.336;2023-04-25T05:04:25;11.16;89.23
76104;HTU21D;64831;44.870;37.336;2023-04-25T05:07:09;11.23;89.67
76104;HTU21D;64831;44.870;37.336;2023-04-25T05:10:01;11.26;89.92
76104;HTU21D;64831;44.870;37.336;2023-04-25T05:13:03;11.31;90.08
76104;HTU21D;64831;44.870;37.336;2023-04-25T05:16:01;11.38;89.78
76104;HTU21D;64831;44.870;37.336;2023-04-25T05:18:39;11.43;89.66
76104;HTU21D;64831;44.870;37.336;2023-04-25T05:21:22;11.48;89.57
76104;HTU21D;64831;44.870;37.336;2023-04-25T05:24:26;11.45;89.83
76104;HTU21D;64831;44.870;37.336;2023-04-25T05:27:17;11.44;89.95
76104;HTU21D;64831;44.870;37.336;2023-04-25T05:30:09;11.45;90.02
76104;HTU21D;64831;44.870;37.336;2023-04-25T05:32:55;11.49;89.76
76104;HTU21D;64831;44.870;37.336;2023-04-25T05:35:21;11.52;89.52
76104;HTU21D;64831;44.870;37.336;2023-04-25T05:37:48;11.53;89.46
76104;HTU21D;64831;44.870;37.336;2023-04-25T05:40:15;11.56;89.27
76104;HTU21D;64831;44.870;37.336;2023-04-25T05:42:44;11.55;89.23
76104;HTU21D;64831;44.870;37.336;2023-04-25T05:45:22;11.55;89.17
76104;HTU21D;64831;44.870;37.336;2023-04-25T05:48:03;11.58;88.99
76104;HTU21D;64831;44.870;37.336;2023-04-25T05:50:52;11.62;88.90
76104;HTU21D;64831;44.870;37.336;2023-04-25T05:53:36;11.69;88.79
76104;HTU21D;64831;44.870;37.336;2023-04-25T05:56:03;11.76;88.77
76104;HTU21D;64831;44.870;37.336;2023-04-25T05:58:31;11.85;88.71
76104;HTU21D;64831;44.870;37.336;2023-04-25T06:00:59;11.90;88.41
76104;HTU21D;64831;44.870;37.336;2023-04-25T06:03:25;11.93;88.11
76104;HTU21D;64831;44.870;37.336;2023-04-25T06:05:52;11.98;88.00
76104;HTU21D;64831;44.870;37.336;2023-04-25T06:08:19;12.04;88.01
76104;HTU21D;64831;44.870;37.336;2023-04-25T06:10:44;12.16;88.17
76104;HTU21D;64831;44.870;37.336;2023-04-25T06:13:10;12.34;88.54
76104;HTU21D;64831;44.870;37.336;2023-04-25T06:15:37;12.60;88.87
76104;HTU21D;64831;44.870;37.336;2023-04-25T06:18:03;12.79;88.54
76104;HTU21D;64831;44.870;37.336;2023-04-25T06:20:29;12.87;87.73
76104;HTU21D;64831;44.870;37.336;2023-04-25T06:22:57;12.86;86.95
76104;HTU21D;64831;44.870;37.336;2023-04-25T06:25:32;12.81;86.51
76104;HTU21D;64831;44.870;37.336;2023-04-25T06:27:59;12.86;86.58
76104;HTU21D;64831;44.870;37.336;2023-04-25T06:30:25;12.90;86.50
76104;HTU21D;64831;44.870;37.336;2023-04-25T06:32:55;12.94;86.51
76104;HTU21D;64831;44.870;37.336;2023-04-25T06:35:22;13.01;86.39
76104;HTU21D;64831;44.870;37.336;2023-04-25T06:37:48;13.05;85.96
76104;HTU21D;64831;44.870;37.336;2023-04-25T06:40:17;13.08;85.88
76104;HTU21D;64831;44.870;37.336;2023-04-25T06:42:43;13.16;85.71
76104;HTU21D;64831;44.870;37.336;2023-04-25T06:45:42;13.19;85.40
76104;HTU21D;64831;44.870;37.336;2023-04-25T06:48:09;13.18;84.90
76104;HTU21D;64831;44.870;37.336;2023-04-25T06:50:35;13.14;84.68
76104;HTU21D;64831;44.870;37.336;2023-04-25T06:53:01;13.05;83.74
76104;HTU21D;64831;44.870;37.336;2023-04-25T06:55:28;12.92;83.23
76104;HTU21D;64831;44.870;37.336;2023-04-25T06:58:27;12.87;83.31
76104;HTU21D;64831;44.870;37.336;2023-04-25T07:01:06;12.89;83.39
76104;HTU21D;64831;44.870;37.336;2023-04-25T07:03:33;12.92;83.73
76104;HTU21D;64831;44.870;37.336;2023-04-25T07:06:04;12.87;83.12
76104;HTU21D;64831;44.870;37.336;2023-04-25T07:08:30;12.85;82.80
76104;HTU21D;64831;44.870;37.336;2023-04-25T07:10:57;12.81;82.47
76104;HTU21D;64831;44.870;37.336;2023-04-25T07:13:23;12.82;82.52
76104;HTU21D;64831;44.870;37.336;2023-04-25T07:15:50;12.87;83.11
76104;HTU21D;64831;44.870;37.336;2023-04-25T07:18:18;12.95;83.14
76104;HTU21D;64831;44.870;37.336;2023-04-25T07:20:44;13.14;83.78
76104;HTU21D;64831;44.870;37.336;2023-04-25T07:23:11;13.38;83.11
76104;HTU21D;64831;44.870;37.336;2023-04-25T07:25:37;13.64;82.09
76104;HTU21D;64831;44.870;37.336;2023-04-25T07:28:04;13.85;81.24
76104;HTU21D;64831;44.870;37.336;2023-04-25T07:30:30;14.20;81.88
76104;HTU21D;64831;44.870;37.336;2023-04-25T07:32:56;14.50;82.10
76104;HTU21D;64831;44.870;37.336;2023-04-25T07:35:22;14.81;81.64
76104;HTU21D;64831;44.870;37.336;2023-04-25T07:37:49;15.12;80.90
76104;HTU21D;64831;44.870;37.336;2023-04-25T07:40:18;15.48;81.07
76104;HTU21D;64831;44.870;37.336;2023-04-25T07:42:48;15.62;77.77
76104;HTU21D;64831;44.870;37.336;2023-04-25T07:45:18;15.44;75.20
76104;HTU21D;64831;44.870;37.336;2023-04-25T07:47:44;15.32;76.08
76104;HTU21D;64831;44.870;37.336;2023-04-25T07:50:11;15.34;77.08
76104;HTU21D;64831;44.870;37.336;2023-04-25T07:52:37;15.27;76.44
76104;HTU21D;64831;44.870;37.336;2023-04-25T07:55:13;15.36;77.38
76104;HTU21D;64831;44.870;37.336;2023-04-25T07:58:17;15.53;77.85
76104;HTU21D;64831;44.870;37.336;2023-04-25T08:00:50;15.63;77.24
76104;HTU21D;64831;44.870;37.336;2023-04-25T08:03:39;15.57;74.94
76104;HTU21D;64831;44.870;37.336;2023-04-25T08:06:12;15.48;74.73
76104;HTU21D;64831;44.870;37.336;2023-04-25T08:09:07;15.66;76.05
76104;HTU21D;64831;44.870;37.336;2023-04-25T08:11:38;16.05;76.76
76104;HTU21D;64831;44.870;37.336;2023-04-25T08:14:06;16.43;75.75
76104;HTU21D;64831;44.870;37.336;2023-04-25T08:16:32;16.76;74.97
76104;HTU21D;64831;44.870;37.336;2023-04-25T08:18:59;16.91;74.01
76104;HTU21D;64831;44.870;37.336;2023-04-25T08:21:26;16.92;72.89
76104;HTU21D;64831;44.870;37.336;2023-04-25T08:23:54;16.85;72.13
76104;HTU21D;64831;44.870;37.336;2023-04-25T08:26:25;17.00;71.88
76104;HTU21D;64831;44.870;37.336;2023-04-25T08:28:52;17.24;71.08
76104;HTU21D;64831;44.870;37.336;2023-04-25T08:31:18;17.54;71.75
76104;HTU21D;64831;44.870;37.336;2023-04-25T08:33:54;17.75;70.52
76104;HTU21D;64831;44.870;37.336;2023-04-25T08:36:27;17.64;69.14
76104;HTU21D;64831;44.870;37.336;2023-04-25T08:38:54;17.41;68.76
76104;HTU21D;64831;44.870;37.336;2023-04-25T08:41:21;17.19;68.38
76104;HTU21D;64831;44.870;37.336;2023-04-25T08:43:48;17.00;68.73
76104;HTU21D;64831;44.870;37.336;2023-04-25T08:46:18;16.80;68.64
76104;HTU21D;64831;44.870;37.336;2023-04-25T08:49:04;16.89;69.52
76104;HTU21D;64831;44.870;37.336;2023-04-25T08:51:33;17.07;69.14
76104;HTU21D;64831;44.870;37.336;2023-04-25T08:54:10;17.44;70.85
76104;HTU21D;64831;44.870;37.336;2023-04-25T08:56:38;17.90;70.78
76104;HTU21D;64831;44.870;37.336;2023-04-25T08:59:04;18.39;70.30
76104;HTU21D;64831;44.870;37.336;2023-04-25T09:01:34;18.79;67.32
76104;HTU21D;64831;44.870;37.336;2023-04-25T09:04:03;19.12;68.55
76104;HTU21D;64831;44.870;37.336;2023-04-25T09:06:30;19.33;67.64
76104;HTU21D;64831;44.870;37.336;2023-04-25T09:09:03;19.51;66.55
76104;HTU21D;64831;44.870;37.336;2023-04-25T09:11:31;19.62;66.26
76104;HTU21D;64831;44.870;37.336;2023-04-25T09:14:18;19.70;64.35
76104;HTU21D;64831;44.870;37.336;2023-04-25T09:17:01;19.73;64.11
76104;HTU21D;64831;44.870;37.336;2023-04-25T09:19:40;19.69;63.25
76104;HTU21D;64831;44.870;37.336;2023-04-25T09:22:16;19.59;62.70
76104;HTU21D;64831;44.870;37.336;2023-04-25T09:24:44;19.36;61.92
76104;HTU21D;64831;44.870;37.336;2023-04-25T09:27:20;19.30;62.83
76104;HTU21D;64831;44.870;37.336;2023-04-25T09:30:01;19.26;61.73
76104;HTU21D;64831;44.870;37.336;2023-04-25T09:32:44;19.15;62.09
76104;HTU21D;64831;44.870;37.336;2023-04-25T09:35:10;19.09;61.66
76104;HTU21D;64831;44.870;37.336;2023-04-25T09:37:50;19.15;62.05
76104;HTU21D;64831;44.870;37.336;2023-04-25T09:40:48;19.27;62.11
76104;HTU21D;64831;44.870;37.336;2023-04-25T09:43:25;19.43;61.74
76104;HTU21D;64831;44.870;37.336;2023-04-25T09:45:54;19.45;61.22
76104;HTU21D;64831;44.870;37.336;2023-04-25T09:48:25;19.41;60.17
76104;HTU21D;64831;44.870;37.336;2023-04-25T09:51:08;19.28;60.40
76104;HTU21D;64831;44.870;37.336;2023-04-25T09:53:41;19.16;60.11
76104;HTU21D;64831;44.870;37.336;2023-04-25T09:56:13;18.87;59.25
76104;HTU21D;64831;44.870;37.336;2023-04-25T09:58:40;18.78;59.49
76104;HTU21D;64831;44.870;37.336;2023-04-25T10:01:08;18.68;59.49
76104;HTU21D;64831;44.870;37.336;2023-04-25T10:03:47;18.49;59.44
76104;HTU21D;64831;44.870;37.336;2023-04-25T10:06:27;18.19;59.42
76104;HTU21D;64831;44.870;37.336;2023-04-25T10:08:55;17.70;59.92
76104;HTU21D;64831;44.870;37.336;2023-04-25T10:11:21;17.33;60.78
76104;HTU21D;64831;44.870;37.336;2023-04-25T10:13:50;17.01;61.57
76104;HTU21D;64831;44.870;37.336;2023-04-25T10:16:16;16.93;62.17
76104;HTU21D;64831;44.870;37.336;2023-04-25T10:18:42;16.95;62.41
76104;HTU21D;64831;44.870;37.336;2023-04-25T10:21:08;17.03;62.31
76104;HTU21D;64831;44.870;37.336;2023-04-25T10:23:36;17.16;62.19
76104;HTU21D;64831;44.870;37.336;2023-04-25T10:26:03;17.21;61.76
76104;HTU21D;64831;44.870;37.336;2023-04-25T10:28:29;17.07;62.24
76104;HTU21D;64831;44.870;37.336;2023-04-25T10:31:02;17.18;62.40
76104;HTU21D;64831;44.870;37.336;2023-04-25T10:33:39;17.16;62.07
76104;HTU21D;64831;44.870;37.336;2023-04-25T10:36:13;17.14;62.54
76104;HTU21D;64831;44.870;37.336;2023-04-25T10:38:42;17.11;62.53
76104;HTU21D;64831;44.870;37.336;2023-04-25T10:41:10;17.10;62.59
76104;HTU21D;64831;44.870;37.336;2023-04-25T10:46:17;17.29;62.76
76104;HTU21D;64831;44.870;37.336;2023-04-25T10:48:52;17.29;62.19
76104;HTU21D;64831;44.870;37.336;2023-04-25T10:51:23;17.18;62.41
76104;HTU21D;64831;44.870;37.336;2023-04-25T10:54:02;17.10;62.51
76104;HTU21D;64831;44.870;37.336;2023-04-25T10:56:32;17.06;62.62
76104;HTU21D;64831;44.870;37.336;2023-04-25T10:59:17;17.05;62.39
76104;HTU21D;64831;44.870;37.336;2023-04-25T11:01:45;17.02;62.60
76104;HTU21D;64831;44.870;37.336;2023-04-25T11:04:28;17.03;62.82
76104;HTU21D;64831;44.870;37.336;2023-04-25T11:09:38;17.18;62.97
76104;HTU21D;64831;44.870;37.336;2023-04-25T11:12:04;17.24;62.80
76104;HTU21D;64831;44.870;37.336;2023-04-25T11:14:32;17.19;62.62
76104;HTU21D;64831;44.870;37.336;2023-04-25T11:16:59;17.13;62.60
76104;HTU21D;64831;44.870;37.336;2023-04-25T11:19:25;16.89;62.85
76104;HTU21D;64831;44.870;37.336;2023-04-25T11:21:59;16.72;63.20
76104;HTU21D;64831;44.870;37.336;2023-04-25T11:24:29;16.66;63.39
76104;HTU21D;64831;44.870;37.336;2023-04-25T11:26:58;16.69;63.41
76104;HTU21D;64831;44.870;37.336;2023-04-25T11:29:28;16.69;63.52
76104;HTU21D;64831;44.870;37.336;2023-04-25T11:31:55;16.72;63.33
76104;HTU21D;64831;44.870;37.336;2023-04-25T11:34:24;16.79;63.34
76104;HTU21D;64831;44.870;37.336;2023-04-25T11:36:51;16.82;62.98
76104;HTU21D;64831;44.870;37.336;2023-04-25T11:39:19;16.76;62.91
76104;HTU21D;64831;44.870;37.336;2023-04-25T11:41:46;16.66;62.92
76104;HTU21D;64831;44.870;37.336;2023-04-25T11:44:12;16.47;63.36
76104;HTU21D;64831;44.870;37.336;2023-04-25T11:46:40;16.40;63.69
76104;HTU21D;64831;44.870;37.336;2023-04-25T11:49:07;16.40;63.87
76104;HTU21D;64831;44.870;37.336;2023-04-25T11:51:43;16.40;63.82
76104;HTU21D;64831;44.870;37.336;2023-04-25T11:54:10;16.31;63.86
76104;HTU21D;64831;44.870;37.336;2023-04-25T11:56:37;16.26;64.02
76104;HTU21D;64831;44.870;37.336;2023-04-25T11:59:05;16.16;63.95
76104;HTU21D;64831;44.870;37.336;2023-04-25T12:01:34;16.07;64.28
76104;HTU21D;64831;44.870;37.336;2023-04-25T12:04:20;16.00;64.56
76104;HTU21D;64831;44.870;37.336;2023-04-25T12:06:48;15.97;64.62
76104;HTU21D;64831;44.870;37.336;2023-04-25T12:09:15;15.93;64.65
76104;HTU21D;64831;44.870;37.336;2023-04-25T12:11:48;15.83;64.70
76104;HTU21D;64831;44.870;37.336;2023-04-25T12:14:23;15.69;64.72
76104;HTU21D;64831;44.870;37.336;2023-04-25T12:16:54;15.52;65.08
76104;HTU21D;64831;44.870;37.336;2023-04-25T12:19:21;15.32;65.59
76104;HTU21D;64831;44.870;37.336;2023-04-25T12:21:48;15.27;66.08
76104;HTU21D;64831;44.870;37.336;2023-04-25T12:24:22;15.27;66.25
76104;HTU21D;64831;44.870;37.336;2023-04-25T12:26:53;15.29;66.34
76104;HTU21D;64831;44.870;37.336;2023-04-25T12:29:25;15.29;66.43
76104;HTU21D;64831;44.870;37.336;2023-04-25T12:31:53;15.28;66.45
76104;HTU21D;64831;44.870;37.336;2023-04-25T12:34:22;15.25;66.44
76104;HTU21D;64831;44.870;37.336;2023-04-25T12:36:50;15.23;66.59
76104;HTU21D;64831;44.870;37.336;2023-04-25T12:39:23;15.19;66.82
76104;HTU21D;64831;44.870;37.336;2023-04-25T12:41:52;15.18;66.98
76104;HTU21D;64831;44.870;37.336;2023-04-25T12:44:19;15.10;67.01
76104;HTU21D;64831;44.870;37.336;2023-04-25T12:46:46;15.02;67.03
76104;HTU21D;64831;44.870;37.336;2023-04-25T12:49:12;14.91;67.46
76104;HTU21D;64831;44.870;37.336;2023-04-25T12:51:38;14.84;67.73
76104;HTU21D;64831;44.870;37.336;2023-04-25T12:54:05;14.79;67.75
76104;HTU21D;64831;44.870;37.336;2023-04-25T12:56:35;14.71;68.04
76104;HTU21D;64831;44.870;37.336;2023-04-25T12:59:02;14.64;68.26
76104;HTU21D;64831;44.870;37.336;2023-04-25T13:01:31;14.52;68.64
76104;HTU21D;64831;44.870;37.336;2023-04-25T13:03:57;14.49;68.78
76104;HTU21D;64831;44.870;37.336;2023-04-25T13:06:23;14.44;68.89
76104;HTU21D;64831;44.870;37.336;2023-04-25T13:08:49;14.41;69.60
76104;HTU21D;64831;44.870;37.336;2023-04-25T13:11:15;14.41;69.68
76104;HTU21D;64831;44.870;37.336;2023-04-25T13:13:41;14.43;69.74
76104;HTU21D;64831;44.870;37.336;2023-04-25T13:16:08;14.39;69.89
76104;HTU21D;64831;44.870;37.336;2023-04-25T13:18:34;14.35;70.00
76104;HTU21D;64831;44.870;37.336;2023-04-25T13:21:01;14.33;70.16
76104;HTU21D;64831;44.870;37.336;2023-04-25T13:23:28;14.30;70.12
76104;HTU21D;64831;44.870;37.336;2023-04-25T13:25:55;14.27;70.02
76104;HTU21D;64831;44.870;37.336;2023-04-25T13:28:24;14.23;70.10
76104;HTU21D;64831;44.870;37.336;2023-04-25T13:30:50;14.15;70.50
76104;HTU21D;64831;44.870;37.336;2023-04-25T13:33:18;14.09;70.65
76104;HTU21D;64831;44.870;37.336;2023-04-25T13:35:44;14.05;70.77
76104;HTU21D;64831;44.870;37.336;2023-04-25T13:38:13;13.98;70.67
76104;HTU21D;64831;44.870;37.336;2023-04-25T13:40:39;13.95;70.77
76104;HTU21D;64831;44.870;37.336;2023-04-25T13:43:05;13.89;70.96
76104;HTU21D;64831;44.870;37.336;2023-04-25T13:45:32;13.85;70.95
76104;HTU21D;64831;44.870;37.336;2023-04-25T13:47:58;13.81;71.11
76104;HTU21D;64831;44.870;37.336;2023-04-25T13:50:24;13.79;71.29
76104;HTU21D;64831;44.870;37.336;2023-04-25T13:52:49;13.75;71.32
76104;HTU21D;64831;44.870;37.336;2023-04-25T13:55:15;13.70;71.73
76104;HTU21D;64831;44.870;37.336;2023-04-25T13:57:41;13.67;71.79
76104;HTU21D;64831;44.870;37.336;2023-04-25T14:00:08;13.64;71.76
76104;HTU21D;64831;44.870;37.336;2023-04-25T14:02:37;13.61;71.93
76104;HTU21D;64831;44.870;37.336;2023-04-25T14:05:04;13.55;71.99
76104;HTU21D;64831;44.870;37.336;2023-04-25T14:07:30;13.53;72.06
76104;HTU21D;64831;44.870;37.336;2023-04-25T14:09:56;13.47;72.41
76104;HTU21D;64831;44.870;37.336;2023-04-25T14:12:23;13.41;72.59
76104;HTU21D;64831;44.870;37.336;2023-04-25T14:14:49;13.38;72.82
76104;HTU21D;64831;44.870;37.336;2023-04-25T14:17:15;13.35;73.03
76104;HTU21D;64831;44.870;37.336;2023-04-25T14:19:41;13.30;73.30
76104;HTU21D;64831;44.870;37.336;2023-04-25T14:22:11;13.29;73.38
76104;HTU21D;64831;44.870;37.336;2023-04-25T14:24:37;13.26;73.56
76104;HTU21D;64831;44.870;37.336;2023-04-25T14:27:04;13.25;73.54
76104;HTU21D;64831;44.870;37.336;2023-04-25T14:29:30;13.25;73.36
76104;HTU21D;64831;44.870;37.336;2023-04-25T14:31:56;13.21;73.52
76104;HTU21D;64831;44.870;37.336;2023-04-25T14:34:23;13.19;73.74
76104;HTU21D;64831;44.870;37.336;2023-04-25T14:36:49;13.16;73.70
76104;HTU21D;64831;44.870;37.336;2023-04-25T14:39:15;13.18;73.70
76104;HTU21D;64831;44.870;37.336;2023-04-25T14:41:42;13.16;73.85
76104;HTU21D;64831;44.870;37.336;2023-04-25T14:44:08;13.14;73.99
76104;HTU21D;64831;44.870;37.336;2023-04-25T14:46:34;13.14;74.02
76104;HTU21D;64831;44.870;37.336;2023-04-25T14:49:02;13.09;73.99
76104;HTU21D;64831;44.870;37.336;2023-04-25T14:51:29;13.08;73.92
76104;HTU21D;64831;44.870;37.336;2023-04-25T14:53:55;13.05;73.94
76104;HTU21D;64831;44.870;37.336;2023-04-25T14:56:21;13.03;74.08
76104;HTU21D;64831;44.870;37.336;2023-04-25T14:58:47;13.04;73.89
76104;HTU21D;64831;44.870;37.336;2023-04-25T15:01:13;13.04;73.89
76104;HTU21D;64831;44.870;37.336;2023-04-25T15:03:42;13.04;73.97
76104;HTU21D;64831;44.870;37.336;2023-04-25T15:06:08;13.03;73.99
76104;HTU21D;64831;44.870;37.336;2023-04-25T15:08:34;13.01;74.00
76104;HTU21D;64831;44.870;37.336;2023-04-25T15:11:01;13.02;73.91
76104;HTU21D;64831;44.870;37.336;2023-04-25T15:13:28;12.99;74.15
76104;HTU21D;64831;44.870;37.336;2023-04-25T15:15:54;12.94;74.12
76104;HTU21D;64831;44.870;37.336;2023-04-25T15:18:24;12.90;74.18
76104;HTU21D;64831;44.870;37.336;2023-04-25T15:20:51;12.85;74.34
76104;HTU21D;64831;44.870;37.336;2023-04-25T15:23:18;12.82;74.80
76104;HTU21D;64831;44.870;37.336;2023-04-25T15:25:44;12.78;75.02